メインページ
METAR-TAF:

METAR-TAF

空港 :

NWS Office

マジュロ, マーシャル諸島

緯度: 07-05N, 経度: 171-12E, 海抜: 4m

現時点の気象観測

当レポートは28分前の00:54(UTC)に作成
北東の風 5kt
気温 31°C
湿度 75%
気圧 1007 hPa
視程: 32.2km
高度1600ftの雲はほとんどない
高度30000ftの雲は散在している

METAR: PKMR 190054Z 05005KT 20SM FEW016 SCT300 31/26 A2973 RMK SLP071 T03090255

時間: 13:22 (01:22 UTC)


TAF: 見つかりません

4,000以上の空港の気象観測と天気予報(METAR報とTAF報)

利用可能な観測所は地図上に黄色い丸と赤い丸で示す。

丸の上にカーソルを重ねると観測所名を参照できる。

次にクリックすると気象観測と天気予報を参照できる。

マップの切り替え:黒色「×」印の緑ボタンをクリックして拡大、「-」印の緑ボタンをクリックして縮小、緑色の三角印をクリックして隣りの地図に切り替え


METAR-TAF: